• Join FlightAware (Why Join?)
  • Login
  • US Flag 
10:38AM EDT


 

Airport Tracker/Info


-or-


 

Live Flight TrackerFlight Track Log ✈ CSQ961 ✈ 31-Jan-2014 ✈ TJSJ / SJU - TIST / STT

Flight Track Log - Related Links

Times and Time Zones

All times are in EST time to prevent confusion due to time zone crossing. See the CSQ961 flight status page for this flight to view local times or setup timezone preferences in your user account.

Time Position Orientation Groundspeed Altitude Reporting Facility
EST Latitude Longitude Course Direction KTS MPH feet Rate Location/Type
12:24PM 18.4333 -65.9667 83° East 150 173 900  Level San Juan Center
12:25PM 18.4500 -65.9333 62° Northeast 160 184 2,700 1,740 Climbing San Juan Center
12:26PM 18.4667 -65.9000 62° Northeast 150 173 4,400 1,680 Climbing San Juan Center
12:27PM 18.5000 -65.8500 55° Northeast 150 173 6,100 1,260 Climbing San Juan Center
12:28PM 18.4833 -65.8000 109° East 180 207 7,000 420 Climbing San Juan Center
12:29PM 18.4667 -65.7500 109° East 210 242 7,000  Level San Juan Center
12:30PM 18.4585 -65.7069 83° East  Level FlightAware Approximate
12:30PM 18.4500 -65.6833 105° East 220 253 7,000  Level San Juan Center
12:31PM 18.4333 -65.6167 105° East 220 253 7,000  Level San Juan Center
12:32PM 18.4167 -65.5500 105° East 230 265 7,000  Level San Juan Center
12:33PM 18.4000 -65.4833 105° East 230 265 7,000  Level San Juan Center
12:34PM 18.3833 -65.4333 109° East 230 265 7,000  Level San Juan Center
12:35PM 18.3667 -65.3667 105° East 230 265 7,000 -420 Level San Juan Center
12:36PM 18.3500 -65.3000 105° East 230 265 6,200 -1,140 Descending San Juan Center
12:37PM 18.3333 -65.2333 105° East 220 253 4,800 -1,440 Descending San Juan Center
12:38PM 18.3167 -65.1833 109° East 190 219 3,300 -1,200 Descending San Juan Center
12:39PM 18.3167 -65.1333 90° East 160 184 2,400 -720 Descending San Juan Center
12:40PM 18.3167 -65.0833 90° East 160 184 1,900 -600 Descending San Juan Center
12:41PM 18.3167 -65.0500 90° East 130 150 1,300 -720 Descending San Juan Center
12:42PM 18.3333 -65.0000 71° East 130 150 500 -840 Descending San Juan Center